Αρχική σελίδα
METAR-TAF:

METAR-TAF

Αεροδρόμια :

Δαμασκός, Συρία

γεωγραφικό πλάτος: 33-25N, γεωγραφικό μήκος: 036-31E, υψόμετρο: 608 μ

Παρών καιρός

Η αναφορά έγινε 52 λεπτά πριν, στις 00:00 UTC
Άνεμος 8 kt από Β/BΔ
Θερμοκρασία 5°C
Υγρασία 87%
Πίεση 1019 hPa
Ορατότητα 10 χλμ και άνω
Διάσπαρτα νέφη σε ύψος 3000 πόδια
Αρκετά νέφη σε ύψος 10000 πόδια

METAR: OSDI 220000Z 33008KT 9999 SCT030 BKN100 05/03 Q1019

Χρόνος: 02:52 (00:52 UTC)

Πρόγνωση Καιρού

Η αναφορά έγινε 7 ώρες και 52 λεπτά πριν, στις 17:00 UTC
Η πρόγνωση ισχύει από τις 21 στις 18 UTC έως τις 22 στις 24 UTC
Άνεμος 3 kt από μεταβλητές κατευθύνσεις
Ορατότητα: 7000 μ
Προσωρινά
από 22 στις 10 UTC έως τις 22 στις 20 UTC
Άνεμος 10 kt από Α
Ορατότητα 10 χλμ και άνω
Λίγα νέφη σε ύψος 3000 πόδια

TAF: OSDI 211700Z 2118/2224 VRB03KT 7000 TEMPO 2210/2220 08010KT 9999 FEW030

Μετεωρολογικές αναφορές και προγνώσεις για περισσότερα από 4000 αεροδρόμια (δελτία METAR και TAF).

Οι διαθέσιμοι σταθμοί απεικονίζονται στο χάρτη με κίτρινες και κόκκινες κουκκίδες.

Μετακινήστε το ποντίκι πάνω από τις κουκκίδες για να δείτε το όνομα του σταθμού.

Στη συνέχεια, κάντε κλικ για να δείτε τις μετεωρολογικές αναφορές και τις προγνώσεις καιρού.

Για να αλλάξετε το χάρτη: κάντε κλικ στα πράσινα κουμπιά με τον μαύρο σταυρό για να ζουμάρετε, στο πράσινο κουμπί με την παύλα για να αφαιρέσετε το ζουμ ή στα πράσινα βέλη για να αντιπαραβάλλετε χάρτες.


METAR-TAF: